sensor_id;sensor_type;location;lat;lon;timestamp;P1;durP1;ratioP1;P2;durP2;ratioP2
20375;SDS011;10347;51.828;6.466;2023-04-01T00:00:28;3.53;;;1.73;;
20375;SDS011;10347;51.828;6.466;2023-04-01T00:02:54;3.10;;;1.70;;
20375;SDS011;10347;51.828;6.466;2023-04-01T00:05:20;1.52;;;1.42;;
20375;SDS011;10347;51.828;6.466;2023-04-01T00:07:46;2.45;;;1.50;;
20375;SDS011;10347;51.828;6.466;2023-04-01T00:10:11;2.28;;;1.40;;
20375;SDS011;10347;51.828;6.466;2023-04-01T00:12:38;3.00;;;1.77;;
20375;SDS011;10347;51.828;6.466;2023-04-01T00:15:05;2.80;;;1.70;;
20375;SDS011;10347;51.828;6.466;2023-04-01T00:17:32;5.07;;;1.55;;
20375;SDS011;10347;51.828;6.466;2023-04-01T00:19:58;3.70;;;1.83;;
20375;SDS011;10347;51.828;6.466;2023-04-01T00:22:24;2.03;;;1.48;;
20375;SDS011;10347;51.828;6.466;2023-04-01T00:24:51;1.92;;;1.67;;
20375;SDS011;10347;51.828;6.466;2023-04-01T00:27:17;4.18;;;1.52;;
20375;SDS011;10347;51.828;6.466;2023-04-01T00:29:43;2.97;;;1.30;;
20375;SDS011;10347;51.828;6.466;2023-04-01T00:32:09;2.58;;;1.58;;
20375;SDS011;10347;51.828;6.466;2023-04-01T00:34:35;2.72;;;1.50;;
20375;SDS011;10347;51.828;6.466;2023-04-01T00:37:01;2.17;;;1.45;;
20375;SDS011;10347;51.828;6.466;2023-04-01T00:39:31;2.50;;;1.30;;
20375;SDS011;10347;51.828;6.466;2023-04-01T00:41:57;2.40;;;1.20;;
20375;SDS011;10347;51.828;6.466;2023-04-01T00:44:24;2.88;;;1.40;;
20375;SDS011;10347;51.828;6.466;2023-04-01T00:46:51;1.50;;;1.40;;
20375;SDS011;10347;51.828;6.466;2023-04-01T00:49:17;2.83;;;1.48;;
20375;SDS011;10347;51.828;6.466;2023-04-01T00:51:45;5.03;;;1.58;;
20375;SDS011;10347;51.828;6.466;2023-04-01T00:54:13;3.45;;;1.40;;
20375;SDS011;10347;51.828;6.466;2023-04-01T00:56:48;1.33;;;1.13;;
20375;SDS011;10347;51.828;6.466;2023-04-01T00:59:34;1.95;;;1.35;;
20375;SDS011;10347;51.828;6.466;2023-04-01T01:02:05;1.33;;;1.25;;
20375;SDS011;10347;51.828;6.466;2023-04-01T01:04:34;2.20;;;1.40;;
20375;SDS011;10347;51.828;6.466;2023-04-01T01:10:11;3.35;;;1.70;;
20375;SDS011;10347;51.828;6.466;2023-04-01T01:12:59;2.08;;;1.40;;
20375;SDS011;10347;51.828;6.466;2023-04-01T01:18:16;2.10;;;1.50;;
20375;SDS011;10347;51.828;6.466;2023-04-01T01:32:00;4.82;;;1.65;;
20375;SDS011;10347;51.828;6.466;2023-04-01T01:37:35;1.67;;;1.30;;
20375;SDS011;10347;51.828;6.466;2023-04-01T01:40:04;3.72;;;1.65;;
20375;SDS011;10347;51.828;6.466;2023-04-01T01:42:32;1.45;;;1.40;;
20375;SDS011;10347;51.828;6.466;2023-04-01T01:45:01;3.17;;;1.77;;
20375;SDS011;10347;51.828;6.466;2023-04-01T01:47:28;3.08;;;1.63;;
20375;SDS011;10347;51.828;6.466;2023-04-01T01:49:54;1.55;;;1.45;;
20375;SDS011;10347;51.828;6.466;2023-04-01T01:52:22;2.55;;;1.40;;
20375;SDS011;10347;51.828;6.466;2023-04-01T01:54:52;3.53;;;1.60;;
20375;SDS011;10347;51.828;6.466;2023-04-01T01:57:20;1.67;;;1.50;;
20375;SDS011;10347;51.828;6.466;2023-04-01T01:59:49;2.08;;;1.60;;
20375;SDS011;10347;51.828;6.466;2023-04-01T02:02:17;3.50;;;1.80;;
20375;SDS011;10347;51.828;6.466;2023-04-01T02:04:43;2.38;;;2.03;;
20375;SDS011;10347;51.828;6.466;2023-04-01T02:07:13;2.92;;;1.80;;
20375;SDS011;10347;51.828;6.466;2023-04-01T02:09:41;1.70;;;1.60;;
20375;SDS011;10347;51.828;6.466;2023-04-01T02:12:08;2.05;;;1.70;;
20375;SDS011;10347;51.828;6.466;2023-04-01T02:17:24;3.35;;;2.00;;
20375;SDS011;10347;51.828;6.466;2023-04-01T02:20:00;1.70;;;1.60;;
20375;SDS011;10347;51.828;6.466;2023-04-01T02:22:30;4.03;;;1.90;;
20375;SDS011;10347;51.828;6.466;2023-04-01T02:24:59;2.80;;;1.60;;
20375;SDS011;10347;51.828;6.466;2023-04-01T02:27:29;4.55;;;1.80;;
20375;SDS011;10347;51.828;6.466;2023-04-01T02:29:56;2.47;;;1.70;;
20375;SDS011;10347;51.828;6.466;2023-04-01T02:32:23;5.53;;;2.28;;
20375;SDS011;10347;51.828;6.466;2023-04-01T02:34:49;2.45;;;2.20;;
20375;SDS011;10347;51.828;6.466;2023-04-01T02:37:16;2.50;;;2.30;;
20375;SDS011;10347;51.828;6.466;2023-04-01T02:39:42;1.90;;;1.80;;
20375;SDS011;10347;51.828;6.466;2023-04-01T02:42:08;2.85;;;2.33;;
20375;SDS011;10347;51.828;6.466;2023-04-01T02:44:33;2.33;;;2.05;;
20375;SDS011;10347;51.828;6.466;2023-04-01T02:46:59;2.08;;;1.88;;
20375;SDS011;10347;51.828;6.466;2023-04-01T02:49:25;2.30;;;2.10;;
20375;SDS011;10347;51.828;6.466;2023-04-01T02:51:50;2.88;;;2.17;;
20375;SDS011;10347;51.828;6.466;2023-04-01T02:54:16;2.40;;;2.20;;
20375;SDS011;10347;51.828;6.466;2023-04-01T02:56:43;2.40;;;2.22;;
20375;SDS011;10347;51.828;6.466;2023-04-01T02:59:08;2.63;;;2.42;;
20375;SDS011;10347;51.828;6.466;2023-04-01T03:01:34;2.00;;;1.90;;
20375;SDS011;10347;51.828;6.466;2023-04-01T03:04:00;2.40;;;2.30;;
20375;SDS011;10347;51.828;6.466;2023-04-01T03:06:25;2.17;;;2.08;;
20375;SDS011;10347;51.828;6.466;2023-04-01T03:08:51;3.70;;;2.00;;
20375;SDS011;10347;51.828;6.466;2023-04-01T03:11:17;2.72;;;2.60;;
20375;SDS011;10347;51.828;6.466;2023-04-01T03:13:42;2.70;;;2.60;;
20375;SDS011;10347;51.828;6.466;2023-04-01T03:16:08;2.20;;;2.10;;
20375;SDS011;10347;51.828;6.466;2023-04-01T03:18:33;2.88;;;2.45;;
20375;SDS011;10347;51.828;6.466;2023-04-01T03:21:15;2.60;;;2.40;;
20375;SDS011;10347;51.828;6.466;2023-04-01T03:23:42;2.22;;;2.13;;
20375;SDS011;10347;51.828;6.466;2023-04-01T03:26:08;2.38;;;2.17;;
20375;SDS011;10347;51.828;6.466;2023-04-01T03:28:33;2.45;;;2.35;;
20375;SDS011;10347;51.828;6.466;2023-04-01T03:30:59;2.58;;;2.47;;
20375;SDS011;10347;51.828;6.466;2023-04-01T03:33:24;2.75;;;2.55;;
20375;SDS011;10347;51.828;6.466;2023-04-01T03:35:50;6.93;;;3.35;;
20375;SDS011;10347;51.828;6.466;2023-04-01T03:38:17;2.60;;;2.40;;
20375;SDS011;10347;51.828;6.466;2023-04-01T03:40:43;2.47;;;2.30;;
20375;SDS011;10347;51.828;6.466;2023-04-01T03:43:09;2.55;;;2.45;;
20375;SDS011;10347;51.828;6.466;2023-04-01T03:45:35;3.13;;;2.83;;
20375;SDS011;10347;51.828;6.466;2023-04-01T03:48:01;3.20;;;2.67;;
20375;SDS011;10347;51.828;6.466;2023-04-01T03:50:27;3.55;;;2.90;;
20375;SDS011;10347;51.828;6.466;2023-04-01T03:52:52;2.08;;;1.92;;
20375;SDS011;10347;51.828;6.466;2023-04-01T03:55:18;2.80;;;2.70;;
20375;SDS011;10347;51.828;6.466;2023-04-01T03:57:43;3.45;;;3.15;;
20375;SDS011;10347;51.828;6.466;2023-04-01T04:00:09;3.20;;;3.00;;
20375;SDS011;10347;51.828;6.466;2023-04-01T04:02:35;3.40;;;3.20;;
20375;SDS011;10347;51.828;6.466;2023-04-01T04:05:01;2.72;;;2.63;;
20375;SDS011;10347;51.828;6.466;2023-04-01T04:07:27;4.50;;;4.10;;
20375;SDS011;10347;51.828;6.466;2023-04-01T04:09:53;3.80;;;3.50;;
20375;SDS011;10347;51.828;6.466;2023-04-01T04:12:18;4.18;;;3.88;;
20375;SDS011;10347;51.828;6.466;2023-04-01T04:14:44;4.22;;;3.85;;
20375;SDS011;10347;51.828;6.466;2023-04-01T04:17:10;3.97;;;3.70;;
20375;SDS011;10347;51.828;6.466;2023-04-01T04:19:41;3.60;;;3.38;;
20375;SDS011;10347;51.828;6.466;2023-04-01T04:22:07;4.22;;;3.85;;
20375;SDS011;10347;51.828;6.466;2023-04-01T04:24:34;4.97;;;4.53;;
20375;SDS011;10347;51.828;6.466;2023-04-01T04:27:00;5.07;;;4.68;;
20375;SDS011;10347;51.828;6.466;2023-04-01T04:29:26;5.78;;;5.28;;
20375;SDS011;10347;51.828;6.466;2023-04-01T04:31:51;5.80;;;5.30;;
20375;SDS011;10347;51.828;6.466;2023-04-01T04:34:17;5.53;;;5.03;;
20375;SDS011;10347;51.828;6.466;2023-04-01T04:36:43;4.10;;;3.80;;
20375;SDS011;10347;51.828;6.466;2023-04-01T04:39:09;4.55;;;4.15;;
20375;SDS011;10347;51.828;6.466;2023-04-01T04:41:36;5.05;;;4.60;;
20375;SDS011;10347;51.828;6.466;2023-04-01T04:44:02;5.32;;;4.82;;
20375;SDS011;10347;51.828;6.466;2023-04-01T04:46:28;5.57;;;5.07;;
20375;SDS011;10347;51.828;6.466;2023-04-01T04:48:54;6.38;;;5.50;;
20375;SDS011;10347;51.828;6.466;2023-04-01T04:51:20;8.75;;;6.40;;
20375;SDS011;10347;51.828;6.466;2023-04-01T04:53:46;6.55;;;5.95;;
20375;SDS011;10347;51.828;6.466;2023-04-01T04:56:12;6.18;;;5.38;;
20375;SDS011;10347;51.828;6.466;2023-04-01T04:58:42;7.00;;;6.30;;
20375;SDS011;10347;51.828;6.466;2023-04-01T05:01:08;6.15;;;5.40;;
20375;SDS011;10347;51.828;6.466;2023-04-01T05:03:35;5.03;;;4.63;;
20375;SDS011;10347;51.828;6.466;2023-04-01T05:06:01;5.45;;;4.88;;
20375;SDS011;10347;51.828;6.466;2023-04-01T05:08:27;5.55;;;5.05;;
20375;SDS011;10347;51.828;6.466;2023-04-01T05:10:53;5.85;;;5.32;;
20375;SDS011;10347;51.828;6.466;2023-04-01T05:13:18;7.57;;;5.80;;
20375;SDS011;10347;51.828;6.466;2023-04-01T05:15:44;6.70;;;5.95;;
20375;SDS011;10347;51.828;6.466;2023-04-01T05:18:10;6.38;;;5.78;;
20375;SDS011;10347;51.828;6.466;2023-04-01T05:20:35;6.05;;;5.43;;
20375;SDS011;10347;51.828;6.466;2023-04-01T05:23:01;6.18;;;5.57;;
20375;SDS011;10347;51.828;6.466;2023-04-01T05:25:27;5.90;;;5.25;;
20375;SDS011;10347;51.828;6.466;2023-04-01T05:27:52;6.13;;;5.53;;
20375;SDS011;10347;51.828;6.466;2023-04-01T05:30:18;7.30;;;5.90;;
20375;SDS011;10347;51.828;6.466;2023-04-01T05:32:44;5.82;;;5.20;;
20375;SDS011;10347;51.828;6.466;2023-04-01T05:35:09;5.40;;;4.90;;
20375;SDS011;10347;51.828;6.466;2023-04-01T05:37:35;5.95;;;5.40;;
20375;SDS011;10347;51.828;6.466;2023-04-01T05:40:02;5.72;;;5.15;;
20375;SDS011;10347;51.828;6.466;2023-04-01T05:42:28;5.70;;;5.13;;
20375;SDS011;10347;51.828;6.466;2023-04-01T05:44:54;5.25;;;4.72;;
20375;SDS011;10347;51.828;6.466;2023-04-01T05:47:20;5.50;;;5.00;;
20375;SDS011;10347;51.828;6.466;2023-04-01T05:49:46;4.90;;;4.40;;
20375;SDS011;10347;51.828;6.466;2023-04-01T05:52:12;5.00;;;4.22;;
20375;SDS011;10347;51.828;6.466;2023-04-01T05:54:38;4.68;;;4.28;;
20375;SDS011;10347;51.828;6.466;2023-04-01T05:57:03;4.55;;;4.15;;
20375;SDS011;10347;51.828;6.466;2023-04-01T05:59:29;4.57;;;4.18;;
20375;SDS011;10347;51.828;6.466;2023-04-01T06:01:56;6.97;;;5.18;;
20375;SDS011;10347;51.828;6.466;2023-04-01T06:04:22;4.93;;;4.38;;
20375;SDS011;10347;51.828;6.466;2023-04-01T06:06:48;6.00;;;5.40;;
20375;SDS011;10347;51.828;6.466;2023-04-01T06:09:15;5.30;;;4.80;;
20375;SDS011;10347;51.828;6.466;2023-04-01T06:17:43;5.03;;;4.55;;
20375;SDS011;10347;51.828;6.466;2023-04-01T06:20:43;4.00;;;3.70;;
20375;SDS011;10347;51.828;6.466;2023-04-01T06:31:03;4.55;;;4.15;;
20375;SDS011;10347;51.828;6.466;2023-04-01T06:39:38;3.97;;;3.67;;
20375;SDS011;10347;51.828;6.466;2023-04-01T06:42:15;3.70;;;3.40;;
20375;SDS011;10347;51.828;6.466;2023-04-01T06:45:00;3.50;;;3.20;;
20375;SDS011;10347;51.828;6.466;2023-04-01T06:53:03;3.13;;;2.92;;
20375;SDS011;10347;51.828;6.466;2023-04-01T06:55:52;3.17;;;2.97;;
20375;SDS011;10347;51.828;6.466;2023-04-01T06:58:23;3.67;;;3.38;;
20375;SDS011;10347;51.828;6.466;2023-04-01T07:01:00;3.55;;;3.25;;
20375;SDS011;10347;51.828;6.466;2023-04-01T07:03:41;3.65;;;3.40;;
20375;SDS011;10347;51.828;6.466;2023-04-01T07:06:14;3.40;;;3.20;;
20375;SDS011;10347;51.828;6.466;2023-04-01T07:08:48;3.88;;;3.58;;
20375;SDS011;10347;51.828;6.466;2023-04-01T07:11:22;3.13;;;2.92;;
20375;SDS011;10347;51.828;6.466;2023-04-01T07:16:21;3.58;;;3.28;;
20375;SDS011;10347;51.828;6.466;2023-04-01T07:21:29;3.88;;;3.58;;
20375;SDS011;10347;51.828;6.466;2023-04-01T07:24:01;4.40;;;4.00;;
20375;SDS011;10347;51.828;6.466;2023-04-01T07:26:35;5.82;;;5.25;;
20375;SDS011;10347;51.828;6.466;2023-04-01T07:29:00;6.30;;;5.03;;
20375;SDS011;10347;51.828;6.466;2023-04-01T07:34:17;6.68;;;5.70;;
20375;SDS011;10347;51.828;6.466;2023-04-01T07:36:53;8.18;;;6.45;;
20375;SDS011;10347;51.828;6.466;2023-04-01T07:47:36;10.68;;;7.75;;
20375;SDS011;10347;51.828;6.466;2023-04-01T07:50:28;9.73;;;7.88;;
20375;SDS011;10347;51.828;6.466;2023-04-01T07:53:18;10.13;;;7.40;;
20375;SDS011;10347;51.828;6.466;2023-04-01T07:56:38;12.05;;;8.40;;
20375;SDS011;10347;51.828;6.466;2023-04-01T08:07:30;11.43;;;7.38;;
20375;SDS011;10347;51.828;6.466;2023-04-01T08:10:15;9.25;;;6.85;;
20375;SDS011;10347;51.828;6.466;2023-04-01T08:15:55;10.90;;;6.47;;
20375;SDS011;10347;51.828;6.466;2023-04-01T08:19:00;10.93;;;6.57;;
20375;SDS011;10347;51.828;6.466;2023-04-01T08:21:47;6.97;;;4.97;;
20375;SDS011;10347;51.828;6.466;2023-04-01T08:24:37;5.68;;;4.93;;
20375;SDS011;10347;51.828;6.466;2023-04-01T08:32:58;7.28;;;4.93;;
20375;SDS011;10347;51.828;6.466;2023-04-01T08:35:31;6.65;;;5.22;;
20375;SDS011;10347;51.828;6.466;2023-04-01T08:38:09;6.05;;;5.03;;
20375;SDS011;10347;51.828;6.466;2023-04-01T08:57:09;7.20;;;5.22;;
20375;SDS011;10347;51.828;6.466;2023-04-01T09:10:57;7.97;;;5.53;;
20375;SDS011;10347;51.828;6.466;2023-04-01T09:24:24;7.07;;;5.28;;
20375;SDS011;10347;51.828;6.466;2023-04-01T09:26:56;7.18;;;5.30;;
20375;SDS011;10347;51.828;6.466;2023-04-01T09:32:17;7.57;;;5.18;;
20375;SDS011;10347;51.828;6.466;2023-04-01T09:37:53;6.20;;;4.97;;
20375;SDS011;10347;51.828;6.466;2023-04-01T09:40:39;5.60;;;4.78;;
20375;SDS011;10347;51.828;6.466;2023-04-01T09:45:58;5.45;;;4.38;;
20375;SDS011;10347;51.828;6.466;2023-04-01T09:48:46;6.43;;;4.97;;
20375;SDS011;10347;51.828;6.466;2023-04-01T09:59:57;4.75;;;3.97;;
20375;SDS011;10347;51.828;6.466;2023-04-01T10:05:19;4.53;;;3.75;;
20375;SDS011;10347;51.828;6.466;2023-04-01T10:10:33;4.10;;;3.70;;
20375;SDS011;10347;51.828;6.466;2023-04-01T10:47:11;4.40;;;4.00;;
20375;SDS011;10347;51.828;6.466;2023-04-01T10:58:12;5.50;;;3.90;;
20375;SDS011;10347;51.828;6.466;2023-04-01T11:00:57;3.50;;;3.30;;
20375;SDS011;10347;51.828;6.466;2023-04-01T11:04:31;4.28;;;3.88;;
20375;SDS011;10347;51.828;6.466;2023-04-01T11:21:16;2.92;;;2.72;;
20375;SDS011;10347;51.828;6.466;2023-04-01T11:26:50;2.10;;;2.00;;
20375;SDS011;10347;51.828;6.466;2023-04-01T11:34:55;1.13;;;1.13;;
20375;SDS011;10347;51.828;6.466;2023-04-01T11:37:49;1.50;;;1.40;;
20375;SDS011;10347;51.828;6.466;2023-04-01T11:46:27;1.63;;;1.52;;
20375;SDS011;10347;51.828;6.466;2023-04-01T11:52:05;1.20;;;1.10;;
20375;SDS011;10347;51.828;6.466;2023-04-01T11:57:40;1.50;;;1.40;;
20375;SDS011;10347;51.828;6.466;2023-04-01T12:00:22;1.60;;;1.50;;
20375;SDS011;10347;51.828;6.466;2023-04-01T12:08:39;2.80;;;2.60;;
20375;SDS011;10347;51.828;6.466;2023-04-01T12:17:03;2.20;;;2.10;;
20375;SDS011;10347;51.828;6.466;2023-04-01T12:30:52;7.38;;;6.13;;
20375;SDS011;10347;51.828;6.466;2023-04-01T12:53:04;7.18;;;5.95;;
20375;SDS011;10347;51.828;6.466;2023-04-01T12:55:53;6.95;;;4.95;;
20375;SDS011;10347;51.828;6.466;2023-04-01T13:04:20;6.78;;;5.60;;
20375;SDS011;10347;51.828;6.466;2023-04-01T13:15:52;5.15;;;4.65;;
20375;SDS011;10347;51.828;6.466;2023-04-01T13:21:56;5.80;;;5.20;;
20375;SDS011;10347;51.828;6.466;2023-04-01T13:27:30;6.72;;;5.60;;
20375;SDS011;10347;51.828;6.466;2023-04-01T13:32:58;5.50;;;5.00;;
20375;SDS011;10347;51.828;6.466;2023-04-01T13:40:51;4.68;;;4.28;;
20375;SDS011;10347;51.828;6.466;2023-04-01T13:51:44;5.88;;;5.10;;
20375;SDS011;10347;51.828;6.466;2023-04-01T14:19:46;2.85;;;2.65;;
20375;SDS011;10347;51.828;6.466;2023-04-01T14:22:59;3.22;;;2.92;;
20375;SDS011;10347;51.828;6.466;2023-04-01T14:32:05;2.10;;;1.75;;
20375;SDS011;10347;51.828;6.466;2023-04-01T14:37:55;1.50;;;1.40;;
20375;SDS011;10347;51.828;6.466;2023-04-01T14:40:34;1.30;;;1.30;;
20375;SDS011;10347;51.828;6.466;2023-04-01T14:51:39;1.77;;;1.67;;
20375;SDS011;10347;51.828;6.466;2023-04-01T14:54:13;4.00;;;2.38;;
20375;SDS011;10347;51.828;6.466;2023-04-01T14:56:48;2.83;;;2.50;;
20375;SDS011;10347;51.828;6.466;2023-04-01T15:12:53;3.15;;;2.20;;
20375;SDS011;10347;51.828;6.466;2023-04-01T15:15:45;2.22;;;2.10;;
20375;SDS011;10347;51.828;6.466;2023-04-01T15:21:44;2.58;;;2.38;;
20375;SDS011;10347;51.828;6.466;2023-04-01T15:27:21;2.80;;;2.25;;
20375;SDS011;10347;51.828;6.466;2023-04-01T15:32:55;2.28;;;2.08;;
20375;SDS011;10347;51.828;6.466;2023-04-01T15:38:18;2.53;;;2.22;;
20375;SDS011;10347;51.828;6.466;2023-04-01T15:40:57;2.60;;;2.40;;
20375;SDS011;10347;51.828;6.466;2023-04-01T15:43:39;2.80;;;2.60;;
20375;SDS011;10347;51.828;6.466;2023-04-01T15:46:14;3.97;;;3.58;;
20375;SDS011;10347;51.828;6.466;2023-04-01T15:54:32;5.82;;;5.22;;
20375;SDS011;10347;51.828;6.466;2023-04-01T16:05:25;6.65;;;5.72;;
20375;SDS011;10347;51.828;6.466;2023-04-01T16:08:08;6.72;;;5.63;;
20375;SDS011;10347;51.828;6.466;2023-04-01T16:19:22;3.78;;;3.38;;
20375;SDS011;10347;51.828;6.466;2023-04-01T16:22:20;4.75;;;3.47;;
20375;SDS011;10347;51.828;6.466;2023-04-01T16:30:48;3.53;;;3.22;;
20375;SDS011;10347;51.828;6.466;2023-04-01T16:39:54;3.15;;;2.95;;
20375;SDS011;10347;51.828;6.466;2023-04-01T16:47:49;5.03;;;4.53;;
20375;SDS011;10347;51.828;6.466;2023-04-01T16:50:20;3.63;;;3.28;;
20375;SDS011;10347;51.828;6.466;2023-04-01T16:55:51;3.67;;;3.38;;
20375;SDS011;10347;51.828;6.466;2023-04-01T16:58:35;4.07;;;3.70;;
20375;SDS011;10347;51.828;6.466;2023-04-01T17:01:16;3.33;;;3.13;;
20375;SDS011;10347;51.828;6.466;2023-04-01T17:03:53;3.15;;;2.95;;
20375;SDS011;10347;51.828;6.466;2023-04-01T17:06:31;3.47;;;3.28;;
20375;SDS011;10347;51.828;6.466;2023-04-01T17:09:26;4.18;;;3.80;;
20375;SDS011;10347;51.828;6.466;2023-04-01T17:12:25;3.70;;;3.50;;
20375;SDS011;10347;51.828;6.466;2023-04-01T17:22:45;2.88;;;2.78;;
20375;SDS011;10347;51.828;6.466;2023-04-01T17:53:30;4.20;;;3.90;;
20375;SDS011;10347;51.828;6.466;2023-04-01T17:58:33;1.98;;;1.90;;
20375;SDS011;10347;51.828;6.466;2023-04-01T18:09:07;2.10;;;2.00;;
20375;SDS011;10347;51.828;6.466;2023-04-01T18:17:17;2.38;;;2.28;;
20375;SDS011;10347;51.828;6.466;2023-04-01T18:22:22;2.33;;;2.22;;
20375;SDS011;10347;51.828;6.466;2023-04-01T18:25:12;2.40;;;2.30;;
20375;SDS011;10347;51.828;6.466;2023-04-01T18:27:45;2.38;;;2.17;;
20375;SDS011;10347;51.828;6.466;2023-04-01T18:30:17;4.50;;;2.30;;
20375;SDS011;10347;51.828;6.466;2023-04-01T18:38:12;2.45;;;2.00;;
20375;SDS011;10347;51.828;6.466;2023-04-01T18:51:18;2.03;;;1.92;;
20375;SDS011;10347;51.828;6.466;2023-04-01T19:01:28;2.70;;;2.60;;
20375;SDS011;10347;51.828;6.466;2023-04-01T19:04:23;2.08;;;1.98;;
20375;SDS011;10347;51.828;6.466;2023-04-01T19:07:02;3.17;;;2.65;;
20375;SDS011;10347;51.828;6.466;2023-04-01T19:13:01;1.88;;;1.80;;
20375;SDS011;10347;51.828;6.466;2023-04-01T19:15:39;1.92;;;1.90;;
20375;SDS011;10347;51.828;6.466;2023-04-01T19:18:26;2.42;;;1.55;;
20375;SDS011;10347;51.828;6.466;2023-04-01T19:21:14;1.33;;;1.33;;
20375;SDS011;10347;51.828;6.466;2023-04-01T19:29:33;1.90;;;1.80;;
20375;SDS011;10347;51.828;6.466;2023-04-01T19:32:14;2.13;;;2.03;;
20375;SDS011;10347;51.828;6.466;2023-04-01T19:40:46;1.85;;;1.75;;
20375;SDS011;10347;51.828;6.466;2023-04-01T19:43:38;1.70;;;1.70;;
20375;SDS011;10347;51.828;6.466;2023-04-01T19:46:20;1.90;;;1.80;;
20375;SDS011;10347;51.828;6.466;2023-04-01T20:02:13;1.65;;;1.65;;
20375;SDS011;10347;51.828;6.466;2023-04-01T20:04:55;1.70;;;1.70;;
20375;SDS011;10347;51.828;6.466;2023-04-01T20:07:31;1.88;;;1.77;;
20375;SDS011;10347;51.828;6.466;2023-04-01T20:13:03;1.80;;;1.75;;
20375;SDS011;10347;51.828;6.466;2023-04-01T20:16:10;1.60;;;1.60;;
20375;SDS011;10347;51.828;6.466;2023-04-01T20:23:41;1.40;;;1.40;;
20375;SDS011;10347;51.828;6.466;2023-04-01T20:26:12;1.60;;;1.60;;
20375;SDS011;10347;51.828;6.466;2023-04-01T20:37:57;1.20;;;1.20;;
20375;SDS011;10347;51.828;6.466;2023-04-01T20:40:41;1.27;;;1.27;;
20375;SDS011;10347;51.828;6.466;2023-04-01T20:43:17;1.30;;;1.30;;
20375;SDS011;10347;51.828;6.466;2023-04-01T20:46:11;1.30;;;1.30;;
20375;SDS011;10347;51.828;6.466;2023-04-01T20:49:30;1.50;;;1.50;;
20375;SDS011;10347;51.828;6.466;2023-04-01T20:52:01;1.35;;;1.35;;
20375;SDS011;10347;51.828;6.466;2023-04-01T20:54:53;1.40;;;1.40;;
20375;SDS011;10347;51.828;6.466;2023-04-01T20:57:45;1.67;;;1.58;;
20375;SDS011;10347;51.828;6.466;2023-04-01T21:00:38;1.58;;;1.58;;
20375;SDS011;10347;51.828;6.466;2023-04-01T21:03:23;1.35;;;1.35;;
20375;SDS011;10347;51.828;6.466;2023-04-01T21:11:39;1.55;;;1.55;;
20375;SDS011;10347;51.828;6.466;2023-04-01T21:14:46;2.22;;;1.88;;
20375;SDS011;10347;51.828;6.466;2023-04-01T21:23:11;2.25;;;1.73;;
20375;SDS011;10347;51.828;6.466;2023-04-01T21:28:46;2.08;;;1.98;;
20375;SDS011;10347;51.828;6.466;2023-04-01T21:31:59;1.98;;;1.98;;
20375;SDS011;10347;51.828;6.466;2023-04-01T21:40:22;1.92;;;1.83;;
20375;SDS011;10347;51.828;6.466;2023-04-01T21:43:05;2.17;;;2.08;;
20375;SDS011;10347;51.828;6.466;2023-04-01T22:05:44;2.60;;;2.40;;
20375;SDS011;10347;51.828;6.466;2023-04-01T22:08:56;2.55;;;2.45;;
20375;SDS011;10347;51.828;6.466;2023-04-01T22:11:34;2.63;;;2.42;;
20375;SDS011;10347;51.828;6.466;2023-04-01T22:15:15;3.05;;;2.85;;
20375;SDS011;10347;51.828;6.466;2023-04-01T22:25:32;2.88;;;2.72;;
20375;SDS011;10347;51.828;6.466;2023-04-01T22:28:16;2.47;;;2.38;;
20375;SDS011;10347;51.828;6.466;2023-04-01T22:30:52;3.13;;;2.83;;
20375;SDS011;10347;51.828;6.466;2023-04-01T22:36:18;2.10;;;2.00;;
20375;SDS011;10347;51.828;6.466;2023-04-01T22:39:04;2.10;;;2.00;;
20375;SDS011;10347;51.828;6.466;2023-04-01T22:44:51;2.20;;;2.10;;
20375;SDS011;10347;51.828;6.466;2023-04-01T22:47:47;2.38;;;2.28;;
20375;SDS011;10347;51.828;6.466;2023-04-01T22:52:50;2.50;;;2.40;;
20375;SDS011;10347;51.828;6.466;2023-04-01T22:55:25;2.78;;;2.58;;
20375;SDS011;10347;51.828;6.466;2023-04-01T22:57:58;2.72;;;2.63;;
20375;SDS011;10347;51.828;6.466;2023-04-01T23:03:21;2.95;;;2.50;;
20375;SDS011;10347;51.828;6.466;2023-04-01T23:05:53;2.90;;;2.70;;
20375;SDS011;10347;51.828;6.466;2023-04-01T23:11:23;2.85;;;2.65;;
20375;SDS011;10347;51.828;6.466;2023-04-01T23:14:34;2.72;;;2.55;;
20375;SDS011;10347;51.828;6.466;2023-04-01T23:16:48;2.95;;;2.75;;
20375;SDS011;10347;51.828;6.466;2023-04-01T23:19:26;4.07;;;3.50;;
20375;SDS011;10347;51.828;6.466;2023-04-01T23:25:12;3.30;;;3.10;;
20375;SDS011;10347;51.828;6.466;2023-04-01T23:35:54;2.88;;;2.67;;
20375;SDS011;10347;51.828;6.466;2023-04-01T23:38:21;2.90;;;2.70;;
20375;SDS011;10347;51.828;6.466;2023-04-01T23:40:49;3.17;;;2.88;;
20375;SDS011;10347;51.828;6.466;2023-04-01T23:46:03;3.33;;;3.13;;
20375;SDS011;10347;51.828;6.466;2023-04-01T23:48:32;3.28;;;3.08;;
20375;SDS011;10347;51.828;6.466;2023-04-01T23:51:02;3.67;;;3.38;;
20375;SDS011;10347;51.828;6.466;2023-04-01T23:53:34;3.58;;;3.28;;
20375;SDS011;10347;51.828;6.466;2023-04-01T23:56:01;3.80;;;3.50;;
